CheckWX is a tool to help pilots better visualize weather data.  It is not intended as a substitute for an official pre-flight weather briefing.

08:33:52 UTC

KRCR METAR
Fulton County Airport
Rochester, Indiana, USA
Current

19 mins ago

KRCR 150815Z AUTO 00000KT 10SM CLR M03/M06 A3033 RMK AO2
Observed
Nov-15 @ 08:15 UTC
Visibility
10 SM
Flight Rules
VFR
Cloud Levels
  • Clear skies
Temperature
-3°C / 27°F
Dewpoint
-6°C / 21°F
Humidity
80%
Altimeter
30.33" Hg
Pressure
1027.12 hPa
Previous

39 mins ago

KRCR 150755Z AUTO 24003KT 10SM CLR M03/M06 A3033 RMK AO2
Observed
Nov-15 @ 07:55 UTC
Wind
  • 240° at 3 KTS
Visibility
10 SM
Flight Rules
VFR
Cloud Levels
  • Clear skies
Temperature
-3°C / 27°F
Dewpoint
-6°C / 21°F
Humidity
80%
Altimeter
30.33" Hg
Pressure
1027.12 hPa
Previous

59 mins ago

KRCR 150735Z AUTO 00000KT 10SM CLR M02/M06 A3032 RMK AO2
Observed
Nov-15 @ 07:35 UTC
Visibility
10 SM
Flight Rules
VFR
Cloud Levels
  • Clear skies
Temperature
-2°C / 28°F
Dewpoint
-6°C / 21°F
Humidity
74%
Altimeter
30.32" Hg
Pressure
1026.72 hPa